Luxemburg, WI (54217)

7:32 AM CDT on July 23, 2016 (GMT -0500)
Lloyd Street | | Change Station

Elev 600 ft 44.59 °N, 87.89 °W | Updated 2 minutes ago

Clear
Clear
71.1 °F
Feels Like 71.1 °F
N
1.1
Wind Variable Wind from NNE

Today
High -- | Low -- °F
--% Chance of Precip.
Yesterday
High -- | Low -- °F
Precip. -- in
Pressure 29.97 in
Visibility 10.0 miles
Clouds Clear
Dew Point 67 °F
Humidity 86%
Rainfall 0.00 in
Snow Depth Not available.
5:28 AM 8:25 PM
Waning Gibbous, 85% visible
METAR KGRB 231153Z 00000KT 10SM CLR 22/21 A2998 RMK AO2 SLP147 T02220211 10228 20178 50003
Pressure 29.97 in
Visibility 10.0 miles
Clouds Clear
Dew Point 67 °F
Humidity 86%
Rainfall 0.00 in
Snow Depth Not available.
5:28 AM 8:25 PM
Waning Gibbous, 85% visible
METAR KGRB 231153Z 00000KT 10SM CLR 22/21 A2998 RMK AO2 SLP147 T02220211 10228 20178 50003

10-Day Weather Forecast

Almanac

Astronomy

Jul. 23, 2016 Rise Set
Actual Time
Civil Twilight
Nautical Twilight
Astronomical Twilight
Moon
Length of Visible Light
Length of Day
Tomorrow will be .
, % of the Moon is Illuminated

Today's Extremes

State Highs State Lows

Community

WunderPhotos

Upload Photos

1,926,815 photos uploaded!

WunderBlog® & News

Nearby

Air Quality

  Air Quality AQ Index Pollutant
Not available.

Snow Depth

Station Depth Elevation

Earthquake Activity

City Distance Mag. Time & Date
Minimum magnitude displayed is 2.5.

Coastal Water Temperatures

Place Temperature

Stations

Nearby Weather Stations

Station Location Temp. Windchill Dew Point Humidity Wind Precip. Elev Updated Type
                   

Watches & Warnings

There are currently no watches in effect.